Dades de l'estació automàtica Maials
Resum diari
20:00 TU| Temperatura mitjana | 24.3 °C | |
|---|---|---|
| Temperatura màxima | 32.9 °C | 15:02 TU |
| Temperatura mínima | 17.4 °C | 4:56 TU |
| Humitat relativa mitjana | 62% | |
| Precipitació acumulada | 0.0 mm | |
| Ratxa màxima del vent (2 m) | 21.6 km/h - 145º | 15:45 TU |
| Irradiació solar global | 24.6 MJ/m2 | |
El tram horari està expressat en Temps Universal (TU). Cal sumar una hora en horari d'hivern i dues en horari d'estiu per passar a l'hora oficial.
Maials
| Municipi | Maials |
|---|---|
| Comarca | Segrià |
| Altitud | 350 m |
| Data alta | 20.12.2000 |
| Estat actual | Operativa |
| Període TU |
TM °C |
TX °C |
TN °C |
HRM % |
PPT mm |
VVM (2 m) km/h |
DVM (2 m) graus |
VVX (2 m) km/h |
RS W/m2 |
|---|---|---|---|---|---|---|---|---|---|
| 00:00 - 00:30 | 21.3 | 21.4 | 21.1 | 80 | 0.0 | 4.3 | 152 | 13.3 | 0 |
| 00:30 - 01:00 | 21.3 | 21.4 | 21.3 | 84 | 0.0 | 4.3 | 150 | 15.1 | 0 |
| 01:00 - 01:30 | 21.3 | 21.3 | 21.2 | 88 | 0.0 | 4.3 | 155 | 12.2 | 0 |
| 01:30 - 02:00 | 20.9 | 21.2 | 20.8 | 90 | 0.0 | 3.6 | 162 | 12.2 | 0 |
| 02:00 - 02:30 | 20.5 | 20.8 | 20.0 | 92 | 0.0 | 2.5 | 172 | 11.2 | 0 |
| 02:30 - 03:00 | 19.7 | 20.0 | 19.6 | 94 | 0.0 | 2.2 | 176 | 9.4 | 0 |
| 03:00 - 03:30 | 19.1 | 19.5 | 18.9 | 85 | 0.0 | 3.2 | 211 | 11.9 | 0 |
| 03:30 - 04:00 | 18.4 | 18.9 | 17.9 | 83 | 0.0 | 1.4 | 196 | 5.4 | 0 |
| 04:00 - 04:30 | 18.0 | 18.2 | 17.7 | 83 | 0.0 | 1.8 | 206 | 8.6 | 0 |
| 04:30 - 05:00 | 17.6 | 17.8 | 17.4 | 83 | 0.0 | 1.8 | 196 | 10.1 | 0 |
| 05:00 - 05:30 | 17.7 | 17.8 | 17.6 | 81 | 0.0 | 4.0 | 231 | 11.5 | 0 |
| 05:30 - 06:00 | 17.8 | 17.9 | 17.6 | 79 | 0.0 | 5.4 | 240 | 11.5 | 25 |
| 06:00 - 06:30 | 18.2 | 18.6 | 17.9 | 76 | 0.0 | 5.4 | 239 | 12.6 | 105 |
| 06:30 - 07:00 | 19.0 | 19.4 | 18.7 | 72 | 0.0 | 6.1 | 233 | 13.0 | 199 |
| 07:00 - 07:30 | 19.8 | 20.2 | 19.5 | 68 | 0.0 | 7.2 | 239 | 14.8 | 299 |
| 07:30 - 08:00 | 20.7 | 21.2 | 20.2 | 64 | 0.0 | 6.8 | 233 | 14.0 | 400 |
| 08:00 - 08:30 | 21.7 | 22.2 | 21.2 | 60 | 0.0 | 6.8 | 245 | 14.0 | 497 |
| 08:30 - 09:00 | 22.6 | 23.3 | 22.0 | 57 | 0.0 | 6.8 | 248 | 15.8 | 587 |
| 09:00 - 09:30 | 23.4 | 24.0 | 23.0 | 54 | 0.0 | 6.8 | 265 | 14.4 | 666 |
| 09:30 - 10:00 | 24.2 | 25.0 | 23.8 | 52 | 0.0 | 5.0 | 260 | 12.6 | 734 |
| 10:00 - 10:30 | 25.4 | 26.0 | 24.5 | 48 | 0.0 | 3.6 | 175 | 11.5 | 790 |
| 10:30 - 11:00 | 26.2 | 26.8 | 25.8 | 45 | 0.0 | 4.0 | 247 | 13.7 | 834 |
| 11:00 - 11:30 | 27.3 | 29.0 | 26.1 | 42 | 0.0 | 3.2 | 240 | 15.1 | 862 |
| 11:30 - 12:00 | 28.2 | 29.1 | 27.6 | 40 | 0.0 | 4.3 | 275 | 14.0 | 878 |
| 12:00 - 12:30 | 28.3 | 28.9 | 27.7 | 39 | 0.0 | 6.5 | 287 | 18.0 | 882 |
| 12:30 - 13:00 | 29.7 | 30.4 | 28.5 | 37 | 0.0 | 4.3 | 213 | 12.2 | 867 |
| 13:00 - 13:30 | 30.8 | 32.1 | 30.0 | 34 | 0.0 | 4.0 | 259 | 10.8 | 836 |
| 13:30 - 14:00 | 32.0 | 32.7 | 31.4 | 32 | 0.0 | 4.0 | 133 | 13.7 | 792 |
| 14:00 - 14:30 | 32.1 | 32.7 | 31.2 | 31 | 0.0 | 4.3 | 169 | 15.5 | 735 |
| 14:30 - 15:00 | 32.1 | 32.8 | 31.7 | 31 | 0.0 | 4.3 | 159 | 12.6 | 661 |
| 15:00 - 15:30 | 32.3 | 32.9 | 31.5 | 33 | 0.0 | 5.0 | 145 | 15.5 | 578 |
| 15:30 - 16:00 | 30.8 | 31.9 | 30.1 | 45 | 0.0 | 6.1 | 148 | 21.6 | 485 |
| 16:00 - 16:30 | 29.8 | 30.4 | 29.5 | 49 | 0.0 | 6.5 | 149 | 19.1 | 389 |
| 16:30 - 17:00 | 29.2 | 29.5 | 28.9 | 52 | 0.0 | 6.1 | 143 | 20.5 | 289 |
| 17:00 - 17:30 | 28.5 | 28.8 | 28.0 | 56 | 0.0 | 5.8 | 148 | 16.9 | 186 |
| 17:30 - 18:00 | 27.4 | 27.9 | 26.8 | 60 | 0.0 | 5.8 | 149 | 16.9 | 92 |
| 18:00 - 18:30 | 26.2 | 26.8 | 25.7 | 64 | 0.0 | 5.0 | 142 | 15.5 | 23 |
| 18:30 - 19:00 | 25.2 | 25.6 | 24.9 | 67 | 0.0 | 6.1 | 135 | 20.9 | 0 |
| 19:00 - 19:30 | 24.5 | 24.8 | 24.2 | 71 | 0.0 | 6.1 | 138 | 19.4 | 0 |
| 19:30 - 20:00 | 24.0 | 24.2 | 23.7 | 74 | 0.0 | 5.8 | 140 | 19.4 | 0 |
| 20:00 - 20:30 | 23.5 | 23.7 | 23.3 | 76 | 0.0 | 5.8 | 142 | 18.0 | 0 |
| 20:30 - 21:00 | (s/d) | (s/d) | (s/d) | (s/d) | (s/d) | (s/d) | (s/d) | (s/d) | (s/d) |
Les dades en taronja només han passat un control de qualitat automàtic. Resta pendent la seva validació definitiva.